createdAt,value
2023-05-23T00:00:16.018Z,13.20
2023-05-23T00:02:43.623Z,17.63
2023-05-23T00:05:10.344Z,15.63
2023-05-23T00:07:37.127Z,18.25
2023-05-23T00:10:04.584Z,14.25
2023-05-23T00:12:31.334Z,13.02
2023-05-23T00:14:57.930Z,16.38
2023-05-23T00:17:26.353Z,13.65
2023-05-23T00:19:52.957Z,18.73
2023-05-23T00:22:19.614Z,19.63
2023-05-23T00:24:46.263Z,14.13
2023-05-23T00:27:13.043Z,22.15
2023-05-23T00:29:39.751Z,17.02
2023-05-23T00:32:06.706Z,16.65
2023-05-23T00:34:34.210Z,14.18
2023-05-23T00:37:02.160Z,15.30
2023-05-23T00:39:28.825Z,16.67
2023-05-23T00:41:56.389Z,14.05
2023-05-23T00:44:23.092Z,18.35
2023-05-23T00:46:53.666Z,13.52
2023-05-23T00:49:21.147Z,16.08
2023-05-23T00:51:49.646Z,13.95
2023-05-23T00:54:21.008Z,24.42
2023-05-23T00:56:48.728Z,19.40
2023-05-23T00:59:17.018Z,17.98
2023-05-23T01:01:47.040Z,19.55
2023-05-23T01:04:16.562Z,15.98
2023-05-23T01:06:46.996Z,15.38
2023-05-23T01:09:16.281Z,14.88
2023-05-23T01:12:09.305Z,15.60
2023-05-23T01:14:46.556Z,16.85
2023-05-23T01:17:23.183Z,15.50
2023-05-23T01:20:06.063Z,15.57
2023-05-23T01:22:42.392Z,13.15
2023-05-23T01:25:09.088Z,14.20
2023-05-23T01:27:52.948Z,17.75
2023-05-23T01:30:21.084Z,17.13
2023-05-23T01:32:50.645Z,15.82
2023-05-23T01:35:23.056Z,12.18
2023-05-23T01:37:52.009Z,16.08
2023-05-23T01:40:18.601Z,18.50
2023-05-23T01:42:45.458Z,15.98
2023-05-23T01:45:12.719Z,19.88
2023-05-23T01:47:40.866Z,15.90
2023-05-23T01:50:09.570Z,13.25
2023-05-23T01:52:36.967Z,20.98
2023-05-23T01:55:09.590Z,17.13
2023-05-23T01:57:38.133Z,19.25
2023-05-23T02:00:06.994Z,21.27
2023-05-23T02:02:40.263Z,19.20
2023-05-23T02:05:07.526Z,14.68
2023-05-23T02:07:34.257Z,16.42
2023-05-23T02:10:01.304Z,20.67
2023-05-23T02:14:55.177Z,14.65
2023-05-23T02:17:24.825Z,16.02
2023-05-23T02:19:51.445Z,15.77
2023-05-23T02:22:18.141Z,14.05
2023-05-23T02:24:44.741Z,16.52
2023-05-23T02:27:13.093Z,18.23
2023-05-23T02:29:39.679Z,20.50
2023-05-23T02:32:06.651Z,18.30
2023-05-23T02:34:33.349Z,25.50
2023-05-23T02:37:00.111Z,16.27
2023-05-23T02:39:27.668Z,18.83
2023-05-23T02:41:55.290Z,19.38
2023-05-23T02:44:22.183Z,16.08
2023-05-23T02:46:48.987Z,16.90
2023-05-23T02:49:15.728Z,21.52
2023-05-23T02:51:42.411Z,18.23
2023-05-23T02:54:09.137Z,17.75
2023-05-23T02:56:37.592Z,17.13
2023-05-23T02:59:04.183Z,16.38
2023-05-23T03:01:31.631Z,20.55
2023-05-23T03:03:58.353Z,15.50
2023-05-23T03:06:25.362Z,16.77
2023-05-23T03:08:52.015Z,14.35
2023-05-23T03:11:18.806Z,14.35
2023-05-23T03:13:45.484Z,18.83
2023-05-23T03:16:13.208Z,19.25
2023-05-23T03:18:42.447Z,18.80
2023-05-23T03:21:09.682Z,14.50
2023-05-23T03:23:36.683Z,15.20
2023-05-23T03:26:04.043Z,15.52
2023-05-23T03:28:33.621Z,15.25
2023-05-23T03:31:00.440Z,14.18
2023-05-23T03:33:27.194Z,13.05
2023-05-23T03:35:54.180Z,15.48
2023-05-23T03:38:20.852Z,13.80
2023-05-23T03:40:47.643Z,13.82
2023-05-23T03:43:15.122Z,15.77
2023-05-23T03:45:43.376Z,13.88
2023-05-23T03:48:13.517Z,15.82
2023-05-23T03:50:42.403Z,14.85
2023-05-23T03:53:10.854Z,17.45
2023-05-23T03:55:39.444Z,13.32
2023-05-23T03:58:06.457Z,16.77
2023-05-23T04:00:33.237Z,16.17
2023-05-23T04:03:01.918Z,17.17
2023-05-23T04:05:29.641Z,16.60
2023-05-23T04:07:57.044Z,16.63
2023-05-23T04:10:24.110Z,15.82
2023-05-23T04:12:51.682Z,12.38
2023-05-23T04:15:21.441Z,16.02
2023-05-23T04:17:54.927Z,14.35
2023-05-23T04:20:22.056Z,13.88
2023-05-23T04:22:48.956Z,17.70
2023-05-23T04:25:20.375Z,12.85
2023-05-23T04:28:10.298Z,17.80
2023-05-23T04:30:37.009Z,14.85
2023-05-23T04:33:04.666Z,15.23
2023-05-23T04:35:34.154Z,15.77
2023-05-23T04:40:26.840Z,17.58
2023-05-23T04:43:02.142Z,14.40
2023-05-23T04:45:40.240Z,18.73
2023-05-23T04:48:27.534Z,15.10
2023-05-23T04:50:56.244Z,12.13
2023-05-23T04:53:23.233Z,15.80
2023-05-23T04:55:50.045Z,14.98
2023-05-23T04:58:18.151Z,26.23
2023-05-23T05:00:45.489Z,16.85
2023-05-23T05:03:14.370Z,18.25
2023-05-23T05:05:44.170Z,21.42
2023-05-23T05:08:11.513Z,18.33
2023-05-23T05:10:40.560Z,15.63
2023-05-23T05:13:08.483Z,18.00
2023-05-23T05:18:09.787Z,17.10
2023-05-23T05:20:36.703Z,18.63
2023-05-23T05:23:03.328Z,14.85
2023-05-23T05:25:32.283Z,15.57
2023-05-23T05:28:03.086Z,19.23
2023-05-23T05:30:35.426Z,14.63
2023-05-23T05:33:04.154Z,13.80
2023-05-23T05:35:32.469Z,23.13
2023-05-23T05:38:00.338Z,14.43
2023-05-23T05:40:26.938Z,15.73
2023-05-23T05:42:54.043Z,14.38
2023-05-23T05:45:22.354Z,14.75
2023-05-23T05:47:49.458Z,21.40
2023-05-23T05:50:20.307Z,16.83
2023-05-23T05:52:47.151Z,20.85
2023-05-23T05:55:13.906Z,16.02
2023-05-23T05:57:45.480Z,19.38
2023-05-23T06:00:18.936Z,17.60
2023-05-23T06:02:51.583Z,20.67
2023-05-23T06:05:39.767Z,13.98
2023-05-23T06:08:06.795Z,16.10
2023-05-23T06:10:33.798Z,14.63
2023-05-23T06:13:01.030Z,16.55
2023-05-23T06:15:27.809Z,15.77
2023-05-23T06:17:54.451Z,14.85
2023-05-23T06:20:21.682Z,21.42
2023-05-23T06:22:48.626Z,17.13
2023-05-23T06:25:15.565Z,26.00
2023-05-23T06:27:42.266Z,14.77
2023-05-23T06:30:09.844Z,12.60
2023-05-23T06:32:36.856Z,22.05
2023-05-23T06:35:04.306Z,14.65
2023-05-23T06:37:34.695Z,19.08
2023-05-23T06:40:01.381Z,13.10
2023-05-23T06:42:28.062Z,14.73
2023-05-23T06:45:04.296Z,17.13
2023-05-23T06:47:32.438Z,14.93
2023-05-23T06:50:02.446Z,16.55
2023-05-23T06:52:29.364Z,30.50
2023-05-23T06:54:56.808Z,13.60
2023-05-23T06:57:24.183Z,25.27
2023-05-23T06:59:51.453Z,22.52
2023-05-23T07:02:18.136Z,13.15
2023-05-23T07:04:46.052Z,17.52
2023-05-23T07:07:19.135Z,14.43
2023-05-23T07:09:46.503Z,17.40
2023-05-23T07:12:17.419Z,19.73
2023-05-23T07:14:46.727Z,24.77
2023-05-23T07:17:14.629Z,14.70
2023-05-23T07:19:41.569Z,20.20
2023-05-23T07:22:08.325Z,18.08
2023-05-23T07:24:38.110Z,16.00
2023-05-23T07:27:06.524Z,18.52
2023-05-23T07:29:34.354Z,14.57
2023-05-23T07:32:01.292Z,12.27
2023-05-23T07:34:29.151Z,15.70
2023-05-23T07:37:02.967Z,16.37
2023-05-23T07:39:36.863Z,12.07
2023-05-23T07:42:04.429Z,17.25
2023-05-23T07:44:31.332Z,17.90
2023-05-23T07:46:58.780Z,17.45
2023-05-23T07:49:26.778Z,18.38
2023-05-23T07:51:54.401Z,18.10
2023-05-23T07:54:21.428Z,22.67
2023-05-23T07:56:53.790Z,12.35
2023-05-23T07:59:20.664Z,17.48
2023-05-23T08:01:52.874Z,19.83
2023-05-23T08:04:22.390Z,16.90
2023-05-23T08:07:04.860Z,15.57
2023-05-23T08:09:53.005Z,21.42
2023-05-23T08:12:20.741Z,13.30
2023-05-23T08:14:52.611Z,24.85
2023-05-23T08:17:42.409Z,13.40
2023-05-23T08:20:11.936Z,12.75
2023-05-23T08:22:38.627Z,19.08
2023-05-23T08:25:07.218Z,18.80
2023-05-23T08:27:36.732Z,14.73
2023-05-23T08:30:11.562Z,16.83
2023-05-23T08:32:38.973Z,13.88
2023-05-23T08:35:06.470Z,14.52
2023-05-23T08:37:33.263Z,13.65
2023-05-23T08:40:00.014Z,13.65
2023-05-23T08:42:43.483Z,18.83
2023-05-23T08:45:12.065Z,17.85
2023-05-23T08:47:42.186Z,22.77
2023-05-23T08:50:16.865Z,19.98
2023-05-23T08:52:56.046Z,19.50
2023-05-23T08:55:30.027Z,11.32
2023-05-23T08:58:01.874Z,23.48
2023-05-23T09:00:46.369Z,17.70
2023-05-23T09:03:14.241Z,15.35
2023-05-23T09:05:50.521Z,17.38
2023-05-23T09:08:19.140Z,14.52
2023-05-23T09:10:46.279Z,11.25
2023-05-23T09:13:15.394Z,15.50
2023-05-23T09:16:00.370Z,21.55
2023-05-23T09:18:44.465Z,17.58
2023-05-23T09:21:14.608Z,11.57
2023-05-23T09:23:53.261Z,14.35
2023-05-23T09:26:20.027Z,16.80
2023-05-23T09:28:47.074Z,14.82
2023-05-23T09:31:14.644Z,15.00
2023-05-23T09:33:48.589Z,17.90
2023-05-23T09:36:17.691Z,15.25
2023-05-23T09:38:46.253Z,11.13
2023-05-23T09:41:13.328Z,18.42
2023-05-23T09:43:50.547Z,12.15
2023-05-23T09:46:17.436Z,16.05
2023-05-23T09:48:52.325Z,14.32
2023-05-23T09:51:21.580Z,12.57
2023-05-23T09:53:48.903Z,20.02
2023-05-23T09:56:19.663Z,18.45
2023-05-23T09:58:50.803Z,11.63
2023-05-23T10:01:18.155Z,22.45
2023-05-23T10:03:46.108Z,19.23
2023-05-23T10:06:49.133Z,12.43
2023-05-23T10:09:20.845Z,12.93
2023-05-23T10:11:59.783Z,10.85
2023-05-23T10:14:29.974Z,13.57
2023-05-23T10:17:11.955Z,10.48
2023-05-23T10:20:10.775Z,13.73
2023-05-23T10:22:38.232Z,15.20
2023-05-23T10:25:06.448Z,14.30
2023-05-23T10:27:33.360Z,17.08
2023-05-23T10:30:01.006Z,12.05
2023-05-23T10:32:29.331Z,15.93
2023-05-23T10:35:02.275Z,11.98
2023-05-23T10:37:55.987Z,11.98
2023-05-23T10:40:37.538Z,18.58
2023-05-23T10:43:20.774Z,14.02
2023-05-23T10:45:53.169Z,13.50
2023-05-23T10:48:33.859Z,7.75
2023-05-23T10:51:08.531Z,12.05
2023-05-23T10:53:37.174Z,14.40
2023-05-23T10:56:08.651Z,14.27
2023-05-23T10:58:41.238Z,11.82
2023-05-23T11:01:13.227Z,17.10
2023-05-23T11:03:46.765Z,12.70
2023-05-23T11:06:45.051Z,14.85
2023-05-23T11:09:19.898Z,16.90
2023-05-23T11:11:52.485Z,9.95
2023-05-23T11:14:38.244Z,11.48
2023-05-23T11:17:13.813Z,14.52
2023-05-23T11:19:55.527Z,11.55
2023-05-23T11:24:55.733Z,8.02
2023-05-23T11:27:36.301Z,12.20
2023-05-23T11:30:16.409Z,15.30
2023-05-23T11:32:54.221Z,16.42
2023-05-23T11:35:21.673Z,23.30
2023-05-23T11:37:48.972Z,8.88
2023-05-23T11:40:31.194Z,12.10
2023-05-23T11:42:58.794Z,14.75
2023-05-23T11:45:27.234Z,10.32
2023-05-23T11:47:54.083Z,8.05
2023-05-23T11:50:20.715Z,10.88
2023-05-23T11:52:51.728Z,17.65
2023-05-23T11:55:22.731Z,10.23
2023-05-23T11:57:53.440Z,7.65
2023-05-23T12:00:20.434Z,12.80
2023-05-23T12:02:48.846Z,7.10
2023-05-23T12:05:16.298Z,10.70
2023-05-23T12:07:47.847Z,11.05
2023-05-23T12:12:44.540Z,8.35
2023-05-23T12:15:12.204Z,11.65
2023-05-23T12:17:47.349Z,10.15
2023-05-23T12:20:14.250Z,10.55
2023-05-23T12:22:42.057Z,10.10
2023-05-23T12:25:10.679Z,7.60
2023-05-23T12:27:40.059Z,10.38
2023-05-23T12:30:09.468Z,13.05
2023-05-23T12:32:43.357Z,8.73
2023-05-23T12:35:16.060Z,8.55
2023-05-23T12:37:45.894Z,11.05
2023-05-23T12:40:17.765Z,9.55
2023-05-23T12:42:53.715Z,12.38
2023-05-23T12:45:24.868Z,11.82
2023-05-23T12:47:53.903Z,9.25
2023-05-23T12:50:21.199Z,8.63
2023-05-23T12:52:47.814Z,10.70
2023-05-23T12:55:14.721Z,9.63
2023-05-23T12:57:41.288Z,8.95
2023-05-23T13:00:09.143Z,10.77
2023-05-23T13:02:35.949Z,13.18
2023-05-23T13:05:02.776Z,10.48
2023-05-23T13:07:31.594Z,11.15
2023-05-23T13:09:58.243Z,7.90
2023-05-23T13:12:27.674Z,12.60
2023-05-23T13:14:54.306Z,8.32
2023-05-23T13:17:20.978Z,9.73
2023-05-23T13:19:47.643Z,11.00
2023-05-23T13:22:14.262Z,7.75
2023-05-23T13:24:41.568Z,10.05
2023-05-23T13:27:08.250Z,11.02
2023-05-23T13:29:35.047Z,10.35
2023-05-23T13:32:01.641Z,9.00
2023-05-23T13:34:28.757Z,6.97
2023-05-23T13:36:55.656Z,15.57
2023-05-23T13:39:22.795Z,7.63
2023-05-23T13:41:50.631Z,9.15
2023-05-23T13:44:17.269Z,7.45
2023-05-23T13:46:44.006Z,12.70
2023-05-23T13:49:11.016Z,8.73
2023-05-23T13:51:37.622Z,11.50
2023-05-23T13:54:04.811Z,13.88
2023-05-23T13:56:32.105Z,6.75
2023-05-23T13:59:00.132Z,10.55
2023-05-23T14:01:26.896Z,6.28
2023-05-23T14:03:53.663Z,11.00
2023-05-23T14:06:20.813Z,10.57
2023-05-23T14:08:47.450Z,10.60
2023-05-23T14:11:14.028Z,7.97
2023-05-23T14:13:40.706Z,9.63
2023-05-23T14:16:07.242Z,9.23
2023-05-23T14:18:33.882Z,8.00
2023-05-23T14:21:00.412Z,8.25
2023-05-23T14:23:27.039Z,8.02
2023-05-23T14:25:53.634Z,11.82
2023-05-23T14:28:20.314Z,9.73
2023-05-23T14:30:47.108Z,6.88
2023-05-23T14:33:14.050Z,12.85
2023-05-23T14:35:42.281Z,10.27
2023-05-23T14:38:09.417Z,11.18
2023-05-23T14:40:36.068Z,9.95
2023-05-23T14:43:02.695Z,13.30
2023-05-23T14:45:29.365Z,14.90
2023-05-23T14:50:10.298Z,13.95
2023-05-23T14:52:37.045Z,14.38
2023-05-23T14:55:03.708Z,13.60
2023-05-23T14:57:30.380Z,15.02
2023-05-23T14:59:57.229Z,20.58
2023-05-23T15:02:23.886Z,16.08
2023-05-23T15:04:51.624Z,14.73
2023-05-23T15:07:18.336Z,18.40
2023-05-23T15:09:45.880Z,13.43
2023-05-23T15:12:13.758Z,13.35
2023-05-23T15:14:40.298Z,13.05
2023-05-23T15:17:09.795Z,18.98
2023-05-23T15:19:37.069Z,14.73
2023-05-23T15:22:04.737Z,17.38
2023-05-23T15:24:31.596Z,13.00
2023-05-23T15:27:11.702Z,15.13
2023-05-23T15:29:46.177Z,17.90
2023-05-23T15:32:12.806Z,16.42
2023-05-23T15:34:40.537Z,14.10
2023-05-23T15:37:07.085Z,17.55
2023-05-23T15:39:33.734Z,15.45
2023-05-23T15:42:00.483Z,15.57
2023-05-23T15:44:27.382Z,21.95
2023-05-23T15:46:54.085Z,25.98
2023-05-23T15:49:26.428Z,17.80
2023-05-23T15:51:55.002Z,16.65
2023-05-23T15:54:21.854Z,16.05
2023-05-23T15:56:48.482Z,18.48
2023-05-23T15:59:15.167Z,23.85
2023-05-23T16:01:41.977Z,21.90
2023-05-23T16:04:08.765Z,19.00
2023-05-23T16:06:36.619Z,19.08
2023-05-23T16:09:03.462Z,15.25
2023-05-23T16:11:30.271Z,17.20
2023-05-23T16:13:56.864Z,15.98
2023-05-23T16:16:23.515Z,15.50
2023-05-23T16:18:50.149Z,17.05
2023-05-23T16:21:20.582Z,13.32
2023-05-23T16:23:48.865Z,15.35
2023-05-23T16:26:16.851Z,20.27
2023-05-23T16:28:43.718Z,15.50
2023-05-23T16:31:15.090Z,14.15
2023-05-23T16:33:42.463Z,19.67
2023-05-23T16:36:09.369Z,14.75
2023-05-23T16:38:36.127Z,19.50
2023-05-23T16:41:02.724Z,23.08
2023-05-23T16:43:29.739Z,22.45
2023-05-23T16:45:59.262Z,21.50
2023-05-23T16:48:27.021Z,17.60
2023-05-23T16:50:55.010Z,20.55
2023-05-23T16:53:21.777Z,19.45
2023-05-23T16:55:48.422Z,18.30
2023-05-23T16:58:15.287Z,21.45
2023-05-23T17:00:41.933Z,20.20
2023-05-23T17:03:09.069Z,19.83
2023-05-23T17:05:35.830Z,21.90
2023-05-23T17:08:02.754Z,26.17
2023-05-23T17:10:29.408Z,28.17
2023-05-23T17:12:56.110Z,27.52
2023-05-23T17:15:22.798Z,18.27
2023-05-23T17:17:49.746Z,26.25
2023-05-23T17:20:16.852Z,27.17
2023-05-23T17:22:43.602Z,24.92
2023-05-23T17:27:40.495Z,18.55
2023-05-23T17:30:08.089Z,25.67
2023-05-23T17:32:35.107Z,23.50
2023-05-23T17:35:01.856Z,25.05
2023-05-23T17:37:28.401Z,25.70
2023-05-23T17:42:10.049Z,20.92
2023-05-23T17:44:36.611Z,20.20
2023-05-23T17:47:03.228Z,19.38
2023-05-23T17:49:30.702Z,26.50
2023-05-23T17:51:57.680Z,18.95
2023-05-23T17:54:24.382Z,24.48
2023-05-23T17:56:53.958Z,23.73
2023-05-23T17:59:20.646Z,22.27
2023-05-23T18:01:47.303Z,26.50
2023-05-23T18:04:13.951Z,23.00
2023-05-23T18:06:43.471Z,30.02
2023-05-23T18:09:10.136Z,22.25
2023-05-23T18:11:38.182Z,22.27
2023-05-23T18:14:05.003Z,24.55
2023-05-23T18:16:32.256Z,28.90
2023-05-23T18:19:01.601Z,31.02
2023-05-23T18:21:28.904Z,24.65
2023-05-23T18:23:55.742Z,27.80
2023-05-23T18:26:22.872Z,28.92
2023-05-23T18:28:49.559Z,23.00
2023-05-23T18:31:16.175Z,25.00
2023-05-23T18:33:42.924Z,27.67
2023-05-23T18:36:09.478Z,22.52
2023-05-23T18:38:36.286Z,21.98
2023-05-23T18:41:03.042Z,24.13
2023-05-23T18:43:29.625Z,22.50
2023-05-23T18:45:56.271Z,16.83
2023-05-23T18:48:23.023Z,16.92
2023-05-23T18:50:49.603Z,19.02
2023-05-23T18:53:16.621Z,20.20
2023-05-23T18:55:43.404Z,26.60
2023-05-23T18:58:10.052Z,19.85
2023-05-23T19:00:36.592Z,18.13
2023-05-23T19:03:04.126Z,17.05
2023-05-23T19:05:31.690Z,20.98
2023-05-23T19:07:58.375Z,17.80
2023-05-23T19:10:24.945Z,16.33
2023-05-23T19:12:51.889Z,22.13
2023-05-23T19:15:19.318Z,18.58
2023-05-23T19:17:46.689Z,20.20
2023-05-23T19:20:18.214Z,17.73
2023-05-23T19:27:43.687Z,19.23
2023-05-23T19:30:11.588Z,15.77
2023-05-23T19:32:38.294Z,14.65
2023-05-23T19:35:05.766Z,18.30
2023-05-23T19:37:32.448Z,21.95
2023-05-23T19:39:59.120Z,19.40
2023-05-23T19:42:25.719Z,26.73
2023-05-23T19:44:52.536Z,23.85
2023-05-23T19:47:19.108Z,23.95
2023-05-23T19:49:46.212Z,20.38
2023-05-23T19:52:12.987Z,24.17
2023-05-23T19:54:39.662Z,21.75
2023-05-23T19:57:09.164Z,24.20
2023-05-23T19:59:35.943Z,30.77
2023-05-23T20:02:03.853Z,20.05
2023-05-23T20:04:32.923Z,19.83
2023-05-23T20:07:00.313Z,23.77
2023-05-23T20:09:27.100Z,17.52
2023-05-23T20:11:53.667Z,26.20
2023-05-23T20:14:20.604Z,19.67
2023-05-23T20:16:47.199Z,21.48
2023-05-23T20:19:14.104Z,22.10
2023-05-23T20:21:41.185Z,22.40
2023-05-23T20:24:07.998Z,21.90
2023-05-23T20:26:34.578Z,23.67
2023-05-23T20:29:01.184Z,28.10
2023-05-23T20:31:27.933Z,25.80
2023-05-23T20:33:54.624Z,22.73
2023-05-23T20:36:21.341Z,25.17
2023-05-23T20:38:48.096Z,21.42
2023-05-23T20:41:14.762Z,26.63
2023-05-23T20:43:41.738Z,25.98
2023-05-23T20:46:11.610Z,29.70
2023-05-23T20:48:38.188Z,30.70
2023-05-23T20:51:05.882Z,28.75
2023-05-23T20:53:33.334Z,27.27
2023-05-23T20:56:00.693Z,32.90
2023-05-23T20:58:27.477Z,33.65
2023-05-23T21:00:54.651Z,28.40
2023-05-23T21:03:22.025Z,29.95
2023-05-23T21:05:48.712Z,40.85
2023-05-23T21:08:15.345Z,39.17
2023-05-23T21:10:42.157Z,32.28
2023-05-23T21:13:09.457Z,32.00
2023-05-23T21:15:35.970Z,33.60
2023-05-23T21:18:03.456Z,33.47
2023-05-23T21:20:30.648Z,27.42
2023-05-23T21:22:57.539Z,35.78
2023-05-23T21:25:24.115Z,32.75
2023-05-23T21:27:50.957Z,32.58
2023-05-23T21:30:17.531Z,34.70
2023-05-23T21:32:44.882Z,32.85
2023-05-23T21:35:11.681Z,33.15
2023-05-23T21:37:38.286Z,36.38
2023-05-23T21:40:06.272Z,41.75
2023-05-23T21:42:33.007Z,35.30
2023-05-23T21:44:59.639Z,38.08
2023-05-23T21:47:26.332Z,33.75
2023-05-23T21:49:52.949Z,41.30
2023-05-23T21:52:19.725Z,34.92
2023-05-23T21:54:48.675Z,38.80
2023-05-23T21:57:16.078Z,37.85
2023-05-23T21:59:42.699Z,34.80
2023-05-23T22:02:10.190Z,39.10
2023-05-23T22:04:36.908Z,41.05
2023-05-23T22:07:03.705Z,39.63
2023-05-23T22:09:30.288Z,44.67
2023-05-23T22:11:57.820Z,42.08
2023-05-23T22:14:24.421Z,42.58
2023-05-23T22:16:51.947Z,38.47
2023-05-23T22:19:20.051Z,48.08
2023-05-23T22:21:47.391Z,49.58
2023-05-23T22:24:13.959Z,44.30
2023-05-23T22:26:40.739Z,54.67
2023-05-23T22:29:07.840Z,43.47
2023-05-23T22:31:35.428Z,51.08
2023-05-23T22:34:02.503Z,48.13
2023-05-23T22:36:29.716Z,49.83
2023-05-23T22:38:56.476Z,51.03
2023-05-23T22:41:23.488Z,55.33
2023-05-23T22:43:50.557Z,52.15
2023-05-23T22:46:17.167Z,57.92
2023-05-23T22:51:02.395Z,55.40
2023-05-23T22:53:29.996Z,59.08
2023-05-23T22:55:56.841Z,66.40
2023-05-23T22:58:23.647Z,63.17
2023-05-23T23:00:50.317Z,67.90
2023-05-23T23:03:17.069Z,69.10
2023-05-23T23:05:44.398Z,61.72
2023-05-23T23:08:12.300Z,60.45
2023-05-23T23:10:40.350Z,64.85
2023-05-23T23:13:07.366Z,64.00
2023-05-23T23:15:34.106Z,63.78
2023-05-23T23:18:01.277Z,61.55
2023-05-23T23:20:28.304Z,66.85
2023-05-23T23:22:55.032Z,60.50
2023-05-23T23:25:21.996Z,65.43
2023-05-23T23:27:48.786Z,72.82
2023-05-23T23:30:15.927Z,68.72
2023-05-23T23:32:42.672Z,60.97
2023-05-23T23:35:09.474Z,71.07
2023-05-23T23:37:36.155Z,65.40
2023-05-23T23:40:02.819Z,70.53
2023-05-23T23:42:29.913Z,70.25
2023-05-23T23:44:56.587Z,68.50
2023-05-23T23:47:23.173Z,63.38
2023-05-23T23:49:49.780Z,58.45
2023-05-23T23:52:16.566Z,70.85
2023-05-23T23:54:43.238Z,66.53
2023-05-23T23:57:14.178Z,69.85
2023-05-23T23:59:41.832Z,70.00
